createdAt,value
2017-04-29T00:03:11.391Z,8.20
2017-04-29T00:08:06.932Z,7.97
2017-04-29T00:13:02.833Z,7.98
2017-04-29T00:17:58.233Z,7.87
2017-04-29T00:22:53.592Z,7.77
2017-04-29T00:27:52.614Z,7.80
2017-04-29T00:32:47.573Z,7.85
2017-04-29T00:37:43.573Z,7.57
2017-04-29T00:42:38.746Z,7.60
2017-04-29T00:47:34.505Z,7.57
2017-04-29T00:52:30.254Z,7.50
2017-04-29T00:57:26.074Z,7.51
2017-04-29T01:02:21.834Z,7.42
2017-04-29T01:07:17.593Z,7.39
2017-04-29T01:12:14.736Z,7.29
2017-04-29T01:17:12.195Z,7.20
2017-04-29T01:22:08.053Z,7.35
2017-04-29T01:27:03.417Z,7.36
2017-04-29T01:31:59.016Z,7.50
2017-04-29T01:36:54.936Z,7.63
2017-04-29T01:41:50.896Z,7.57
2017-04-29T01:46:47.156Z,7.63
2017-04-29T01:51:42.737Z,7.60
2017-04-29T01:56:38.503Z,7.79
2017-04-29T02:01:34.164Z,7.58
2017-04-29T02:06:30.739Z,7.63
2017-04-29T02:11:26.218Z,7.50
2017-04-29T02:16:22.038Z,7.50
2017-04-29T02:21:17.701Z,7.56
2017-04-29T02:26:13.580Z,7.57
2017-04-29T02:31:09.039Z,7.43
2017-04-29T02:36:04.779Z,7.48
2017-04-29T02:46:01.783Z,7.38
2017-04-29T02:50:57.620Z,7.39
2017-04-29T02:55:53.841Z,7.61
2017-04-29T03:00:50.383Z,7.31
2017-04-29T03:05:49.065Z,7.10
2017-04-29T03:10:43.889Z,7.17
2017-04-29T03:15:39.474Z,7.23
2017-04-29T03:20:35.876Z,7.32
2017-04-29T03:25:31.767Z,7.31
2017-04-29T03:30:27.342Z,7.31
2017-04-29T03:35:23.331Z,7.23
2017-04-29T03:40:20.084Z,7.13
2017-04-29T03:45:16.324Z,7.07
2017-04-29T03:50:11.803Z,7.10
2017-04-29T04:00:07.284Z,7.07
2017-04-29T04:05:03.105Z,7.23
2017-04-29T04:09:58.824Z,7.20
2017-04-29T04:14:55.485Z,6.99
2017-04-29T04:29:59.192Z,7.21
2017-04-29T04:40:00.278Z,7.06
2017-04-29T04:50:03.519Z,7.35
2017-04-29T04:54:58.904Z,7.32
2017-04-29T04:59:54.940Z,7.20
2017-04-29T05:04:51.683Z,7.33
2017-04-29T05:09:47.486Z,7.29
2017-04-29T05:14:44.428Z,7.07
2017-04-29T05:19:40.110Z,7.10
2017-04-29T05:24:35.852Z,7.15
2017-04-29T05:29:34.920Z,7.45
2017-04-29T05:34:31.453Z,7.61
2017-04-29T05:39:27.864Z,7.47
2017-04-29T05:44:24.822Z,7.38
2017-04-29T05:49:21.479Z,7.56
2017-04-29T05:59:17.291Z,7.66
2017-04-29T06:04:14.313Z,7.72
2017-04-29T06:09:09.675Z,7.85
2017-04-29T06:19:07.883Z,8.08
2017-04-29T06:24:03.437Z,8.24
2017-04-29T06:29:00.264Z,8.45
2017-04-29T06:34:01.600Z,8.56
2017-04-29T06:38:58.022Z,8.55
2017-04-29T06:43:54.633Z,8.81
2017-04-29T06:48:52.475Z,8.91
2017-04-29T07:03:49.598Z,9.11
2017-04-29T07:08:45.254Z,9.22
2017-04-29T07:18:48.307Z,9.11
2017-04-29T07:28:45.945Z,9.46
2017-04-29T07:38:48.399Z,9.58
2017-04-29T07:43:45.530Z,9.50
2017-04-29T07:48:41.438Z,9.55
2017-04-29T07:53:38.822Z,9.76
2017-04-29T07:58:34.913Z,10.09
2017-04-29T08:03:32.181Z,10.53
2017-04-29T08:08:35.698Z,10.86
2017-04-29T08:13:34.313Z,10.57
2017-04-29T08:18:37.930Z,10.92
2017-04-29T08:23:34.292Z,11.36
2017-04-29T08:28:32.242Z,11.37
2017-04-29T08:33:30.540Z,11.26
2017-04-29T08:43:26.199Z,10.25
2017-04-29T08:53:23.770Z,9.98
2017-04-29T09:03:36.334Z,10.44
2017-04-29T09:08:47.669Z,9.94
2017-04-29T09:13:40.600Z,9.59
2017-04-29T09:18:36.320Z,9.46
2017-04-29T09:23:32.206Z,9.66
2017-04-29T09:28:28.044Z,9.72
2017-04-29T09:43:31.544Z,11.54
2017-04-29T09:48:32.744Z,12.58
2017-04-29T09:53:30.003Z,12.15
2017-04-29T09:58:29.201Z,12.17
2017-04-29T10:03:24.441Z,12.47
2017-04-29T10:08:18.395Z,12.47
2017-04-29T10:13:12.676Z,11.72
2017-04-29T10:18:06.676Z,11.35
2017-04-29T10:23:01.409Z,11.14
2017-04-29T10:27:56.585Z,11.08
2017-04-29T10:32:52.428Z,11.52
2017-04-29T10:37:50.192Z,12.06
2017-04-29T10:42:47.012Z,11.88
2017-04-29T10:47:45.278Z,12.57
2017-04-29T10:52:43.527Z,13.46
2017-04-29T10:57:37.816Z,13.09
2017-04-29T11:02:32.309Z,12.91
2017-04-29T11:07:27.950Z,12.83
2017-04-29T11:12:25.657Z,13.18
2017-04-29T11:17:22.950Z,13.05
2017-04-29T11:22:16.377Z,12.72
2017-04-29T11:27:11.048Z,11.78
2017-04-29T11:32:06.444Z,12.29
2017-04-29T11:37:06.439Z,12.43
2017-04-29T11:42:03.312Z,13.00
2017-04-29T11:47:06.846Z,13.19
2017-04-29T11:51:58.837Z,13.03
2017-04-29T11:56:56.936Z,13.65
2017-04-29T12:01:50.851Z,13.41
2017-04-29T12:06:51.967Z,13.30
2017-04-29T12:16:47.885Z,12.86
2017-04-29T12:21:52.158Z,13.28
2017-04-29T12:26:44.408Z,13.08
2017-04-29T12:31:42.021Z,13.18
2017-04-29T12:36:37.048Z,13.19
2017-04-29T12:41:33.235Z,13.35
2017-04-29T12:46:31.056Z,13.65
2017-04-29T12:51:29.121Z,14.12
2017-04-29T12:56:23.261Z,14.33
2017-04-29T13:01:18.379Z,13.71
2017-04-29T13:06:13.346Z,13.28
2017-04-29T13:11:08.295Z,13.25
2017-04-29T13:16:04.098Z,13.35
2017-04-29T13:20:59.720Z,13.05
2017-04-29T13:25:55.714Z,13.19
2017-04-29T13:30:52.180Z,13.37
2017-04-29T13:35:48.256Z,13.59
2017-04-29T13:40:44.071Z,13.49
2017-04-29T13:45:39.809Z,13.57
2017-04-29T13:50:35.635Z,13.41
2017-04-29T13:55:31.374Z,13.62
2017-04-29T14:00:26.891Z,13.53
2017-04-29T14:05:22.438Z,13.67
2017-04-29T14:10:18.244Z,13.53
2017-04-29T14:15:13.950Z,13.71
2017-04-29T14:20:09.786Z,13.54
2017-04-29T14:25:07.225Z,13.77
2017-04-29T14:30:02.543Z,13.15
2017-04-29T14:34:59.065Z,13.03
2017-04-29T14:39:53.930Z,12.75
2017-04-29T14:44:49.694Z,12.50
2017-04-29T14:49:45.271Z,12.54
2017-04-29T14:54:41.003Z,12.47
2017-04-29T14:59:38.021Z,12.58
2017-04-29T15:04:33.416Z,12.73
2017-04-29T15:09:29.477Z,12.82
2017-04-29T15:14:25.260Z,12.50
2017-04-29T15:19:20.886Z,12.35
2017-04-29T15:24:16.958Z,12.61
2017-04-29T15:29:12.638Z,12.75
2017-04-29T15:34:08.279Z,12.37
2017-04-29T15:39:04.482Z,12.57
2017-04-29T15:44:00.479Z,12.85
2017-04-29T15:48:56.196Z,13.03
2017-04-29T15:53:52.431Z,13.23
2017-04-29T15:58:48.765Z,13.27
2017-04-29T16:03:44.934Z,13.47
2017-04-29T16:08:43.508Z,13.25
2017-04-29T16:13:38.600Z,13.23
2017-04-29T16:18:35.092Z,13.47
2017-04-29T16:23:31.149Z,13.75
2017-04-29T16:28:29.728Z,13.67
2017-04-29T16:33:24.809Z,13.62
2017-04-29T16:38:21.744Z,13.77
2017-04-29T16:43:17.429Z,13.68
2017-04-29T16:53:14.460Z,13.44
2017-04-29T16:58:10.444Z,13.42
2017-04-29T17:03:06.000Z,13.27
2017-04-29T17:08:02.052Z,13.19
2017-04-29T17:12:57.673Z,13.23
2017-04-29T17:17:53.433Z,12.72
2017-04-29T17:22:50.123Z,12.42
2017-04-29T17:27:46.224Z,12.62
2017-04-29T17:32:41.649Z,12.32
2017-04-29T17:37:37.175Z,12.24
2017-04-29T17:42:32.967Z,12.10
2017-04-29T17:47:31.511Z,12.35
2017-04-29T17:52:27.278Z,12.18
2017-04-29T18:02:31.406Z,12.04
2017-04-29T18:07:28.365Z,11.86
2017-04-29T18:12:24.317Z,11.80
2017-04-29T18:22:19.078Z,11.57
2017-04-29T18:27:20.026Z,11.51
2017-04-29T18:32:14.572Z,11.44
2017-04-29T18:37:10.409Z,11.36
2017-04-29T18:42:05.607Z,11.14
2017-04-29T18:47:01.917Z,11.07
2017-04-29T18:51:59.852Z,10.97
2017-04-29T18:56:55.055Z,10.94
2017-04-29T19:01:51.006Z,10.89
2017-04-29T19:06:47.685Z,10.81
2017-04-29T19:11:42.991Z,10.69
2017-04-29T19:16:38.649Z,10.44
2017-04-29T19:21:34.312Z,10.31
2017-04-29T19:26:31.650Z,10.28
2017-04-29T19:31:27.060Z,10.37
2017-04-29T19:36:22.810Z,10.23
2017-04-29T19:41:18.351Z,10.07
2017-04-29T19:46:16.129Z,9.97
2017-04-29T19:51:11.133Z,9.97
2017-04-29T19:56:06.791Z,9.87
2017-04-29T20:01:02.300Z,9.94
2017-04-29T20:05:58.130Z,9.98
2017-04-29T20:10:53.411Z,9.83
2017-04-29T20:15:49.693Z,9.56
2017-04-29T20:20:45.515Z,9.48
2017-04-29T20:25:41.223Z,9.43
2017-04-29T20:30:36.508Z,9.56
2017-04-29T20:35:32.060Z,9.51
2017-04-29T20:40:27.823Z,9.50
2017-04-29T20:45:23.999Z,9.56
2017-04-29T20:50:19.636Z,9.50
2017-04-29T20:55:16.109Z,9.43
2017-04-29T21:00:12.164Z,9.47
2017-04-29T21:05:07.624Z,9.16
2017-04-29T21:10:02.865Z,8.87
2017-04-29T21:14:58.367Z,8.89
2017-04-29T21:19:54.008Z,8.81
2017-04-29T21:24:51.069Z,8.85
2017-04-29T21:29:46.909Z,8.74
2017-04-29T21:34:42.157Z,8.69
2017-04-29T21:39:39.312Z,8.69
2017-04-29T21:44:34.498Z,8.58
2017-04-29T21:49:30.159Z,8.46
2017-04-29T21:54:26.410Z,8.33
2017-04-29T21:59:23.193Z,8.23
2017-04-29T22:04:19.073Z,8.23
2017-04-29T22:09:14.883Z,8.30
2017-04-29T22:14:10.743Z,8.51
2017-04-29T22:19:06.223Z,8.31
2017-04-29T22:24:01.865Z,7.98
2017-04-29T22:28:57.384Z,7.83
2017-04-29T22:33:52.876Z,7.93
2017-04-29T22:38:48.428Z,8.13
2017-04-29T22:43:46.136Z,8.01
2017-04-29T22:48:41.179Z,7.85
2017-04-29T22:53:36.793Z,7.53
2017-04-29T22:58:32.469Z,7.51
2017-04-29T23:03:28.370Z,7.70
2017-04-29T23:08:23.593Z,7.60
2017-04-29T23:13:20.148Z,7.21
2017-04-29T23:18:15.612Z,7.20
2017-04-29T23:23:11.549Z,7.40
2017-04-29T23:28:06.851Z,7.35
2017-04-29T23:33:02.571Z,7.43
2017-04-29T23:37:58.211Z,7.38
2017-04-29T23:42:53.838Z,7.15
2017-04-29T23:47:49.652Z,7.02
2017-04-29T23:52:45.315Z,7.10
2017-04-29T23:57:40.406Z,6.93
